createdAt,value
2018-07-05T00:09:15.088Z,20.0
2018-07-05T00:19:29.316Z,19.8
2018-07-05T00:29:44.126Z,19.6
2018-07-05T00:39:57.756Z,19.4
2018-07-05T00:50:12.381Z,19.2
2018-07-05T01:00:26.348Z,19.0
2018-07-05T01:10:40.243Z,18.8
2018-07-05T01:31:30.039Z,18.3
2018-07-05T01:52:07.765Z,17.9
2018-07-05T02:02:53.153Z,17.4
2018-07-05T02:13:38.599Z,17.2
2018-07-05T02:23:53.011Z,17.2
2018-07-05T02:34:07.486Z,17.1
2018-07-05T02:44:52.619Z,16.7
2018-07-05T02:55:07.444Z,16.7
2018-07-05T03:05:21.900Z,16.6
2018-07-05T03:15:35.694Z,16.4
2018-07-05T03:25:49.896Z,16.3
2018-07-05T03:36:04.201Z,16.1
2018-07-05T03:46:18.538Z,16.0
2018-07-05T03:57:41.852Z,15.8
2018-07-05T04:07:55.873Z,15.8
2018-07-05T04:18:10.112Z,15.8
2018-07-05T04:28:26.596Z,15.7
2018-07-05T04:38:40.781Z,15.7
2018-07-05T04:48:54.934Z,15.7
2018-07-05T04:59:09.020Z,15.7
2018-07-05T05:09:23.149Z,15.8
2018-07-05T05:19:37.200Z,15.8
2018-07-05T05:29:51.688Z,15.9
2018-07-05T05:40:06.732Z,16.1
2018-07-05T05:50:21.199Z,16.2
2018-07-05T06:00:35.114Z,16.4
2018-07-05T06:10:49.505Z,16.6
2018-07-05T06:21:39.859Z,17.1
2018-07-05T06:31:53.478Z,17.1
2018-07-05T06:42:07.922Z,17.4
2018-07-05T06:52:53.082Z,18.1
2018-07-05T07:03:37.804Z,18.6
2018-07-05T07:13:51.504Z,18.5
2018-07-05T07:24:05.618Z,19.0
2018-07-05T07:34:19.770Z,19.5
2018-07-05T07:44:33.903Z,20.5
2018-07-05T07:54:48.557Z,22.4
2018-07-05T08:05:17.656Z,24.6
2018-07-05T08:15:32.190Z,26.7
2018-07-05T08:25:45.902Z,28.3
2018-07-05T08:36:00.669Z,29.7
2018-07-05T08:46:15.624Z,31.0
2018-07-05T08:56:29.633Z,32.2
2018-07-05T09:06:43.214Z,33.3
2018-07-05T09:16:57.489Z,34.3
2018-07-05T09:27:11.761Z,35.1
2018-07-05T09:38:08.972Z,36.4
2018-07-05T09:48:22.795Z,36.4
2018-07-05T09:59:08.294Z,37.6
2018-07-05T10:09:23.115Z,37.5
2018-07-05T10:19:36.981Z,38.1
2018-07-05T10:29:49.243Z,38.7
2018-07-05T10:40:04.692Z,39.2
2018-07-05T10:50:19.718Z,39.6
2018-07-05T11:00:34.289Z,40.0
2018-07-05T11:11:19.574Z,40.6
2018-07-05T11:22:05.231Z,40.7
2018-07-05T11:32:18.478Z,40.7
2018-07-05T11:43:10.132Z,40.7
2018-07-05T11:53:24.633Z,40.7
2018-07-05T12:04:10.054Z,40.3
2018-07-05T12:14:21.273Z,40.2
2018-07-05T12:24:34.874Z,39.9
2018-07-05T12:34:48.933Z,39.8
2018-07-05T12:45:03.268Z,39.8
2018-07-05T12:55:52.645Z,39.9
2018-07-05T13:26:32.640Z,40.1
2018-07-05T13:40:27.765Z,40.4
2018-07-05T13:51:37.282Z,40.6
2018-07-05T14:02:24.372Z,40.6
2018-07-05T14:13:10.050Z,40.6
2018-07-05T14:23:23.523Z,40.6
2018-07-05T14:33:39.105Z,40.6
2018-07-05T14:43:54.382Z,40.5
2018-07-05T14:55:27.804Z,40.0
2018-07-05T15:05:42.196Z,40.0
2018-07-05T15:15:53.484Z,39.3
2018-07-05T15:26:07.582Z,38.6
2018-07-05T15:36:21.706Z,37.7
2018-07-05T15:46:36.015Z,36.8
2018-07-05T15:56:50.276Z,36.0
2018-07-05T16:07:04.723Z,35.3
2018-07-05T16:17:50.283Z,33.9
2018-07-05T16:28:05.895Z,33.8
2018-07-05T16:40:32.840Z,32.5
2018-07-05T16:50:47.804Z,32.5
2018-07-05T17:01:02.010Z,31.9
2018-07-05T17:11:15.668Z,31.4
2018-07-05T17:22:04.252Z,30.4
2018-07-05T17:32:17.928Z,30.3
2018-07-05T17:42:30.264Z,29.9
2018-07-05T17:52:44.523Z,29.6
2018-07-05T18:04:13.400Z,28.9
2018-07-05T18:22:44.541Z,28.4
2018-07-05T18:59:50.484Z,26.9
2018-07-05T19:48:52.150Z,24.4
2018-07-05T19:59:05.477Z,24.4
2018-07-05T20:09:22.063Z,23.9
2018-07-05T20:20:07.060Z,23.0
2018-07-05T20:30:19.723Z,22.9
2018-07-05T20:41:05.296Z,22.1
2018-07-05T20:51:20.730Z,22.1
2018-07-05T21:01:34.901Z,21.7
2018-07-05T21:11:49.357Z,21.2
2018-07-05T21:22:03.475Z,20.9
2018-07-05T21:32:17.161Z,20.5
2018-07-05T21:42:31.653Z,20.1
2018-07-05T21:52:45.701Z,19.8
2018-07-05T22:03:00.192Z,19.5
2018-07-05T22:13:14.233Z,19.1
2018-07-05T22:23:28.722Z,18.9
2018-07-05T22:33:42.799Z,18.6
2018-07-05T22:43:56.854Z,18.4
2018-07-05T22:54:11.158Z,18.2
2018-07-05T23:04:25.405Z,17.9
2018-07-05T23:14:39.583Z,17.7
2018-07-05T23:24:53.472Z,17.5
2018-07-05T23:35:04.998Z,17.3
2018-07-05T23:45:17.369Z,17.2
2018-07-05T23:55:32.951Z,17.0
